TFM - Tactical Decision Aid (Experimental) INFO Settings
ID: Runway Winds: CIG/VIS Threshold: METAR Board: Map:

KATL - Atlanta-Hartsfield Jackson Intl

Updated at: 2059 UTC 19 Feb 2017
Latest TAF at: 1936 UTC 19 Feb 2017

TAF Board

Time2052Z19/21Z19/22Z19/23Z20/00Z20/01Z20/02Z20/03Z20/04Z20/05Z20/06Z20/07Z20/08Z20/09Z
TypeOBSPRVLPRVLPRVLPRVLPRVLPRVLPRVLPRVLPRVLPRVLPRVLPRVLPRVL
VIS10>6>6>6>6>6>6>6>6>6>6>6>6>6
CIG----------------------------
CoverFEWFEWFEWFEWFEWFEWFEWFEWFEWFEWFEWFEWFEWFEW
FltCatVFRVFRVFRVFRVFRVFRVFRVFRVFRVFRVFRVFRVFRVFR
WX----------------------------
WDir34031031031020202020202020202020
WSpd149993333333333
WGst----------------------------
TAF
KATL 191936Z 1920/2024 31009KT P6SM FEW040
  FM200000 02003KT P6SM FEW250
  FM201500 12005KT P6SM SCT250


METAR
KATL 192052Z 34014KT 10SM FEW040 FEW250 20/09 A3008 RMK AO2 SLP184 T02000094 55004
KATL 191952Z 34011KT 10SM FEW035 20/09 A3006 RMK AO2 SLP177 T02000094

TAF/METAR Board Legend

Potential Impact
  None Marginal Slight Moderate High
Visibility (sm) >5 3≤X≤5 1≤X<3 0.5≤X<1 <0.5
Ceiling (100 ft) >30 10≤X≤30 4≤X<10 2≤X<4 <2
Wind Speed (kt) <10 10≤X<20 20≤X<30 ≥30
Wind Gust (kt) <15 15≤X<25 25≤X<35 ≥35
Weather No Wx Reported VCTS -TS,-FZRA TS,FZRA +TS,+FZRA



Page loaded:  20:59 UTC  |   12:59 PM Pacific  |   01:59 PM Mountain  |   02:59 PM Central  |   03:59 PM Eastern

 

ADVISORIES

FORECASTS

FORECASTS

OBSERVATIONS

USER TOOLS

ABOUT US